Flight Track Log - Related Links

Times and Time Zones

All times are in EST time to prevent confusion due to time zone crossing. See the UAL139 flight status page for this flight to view local times or setup timezone preferences in your user account.

Time Position Orientation Groundspeed Altitude Reporting Facility
EST Latitude Longitude Course Direction KTS MPH feet Rate Location/Type
Wed 04:42:46 PM 39.8582 -104.6755 360° North 5,100  Level FlightAware ADS-B
Wed 05:01:13 PM 39.8695 -104.6871 North 104 120 5,100 Level FlightAware ADS-B
Wed 05:01:33 PM 39.8851 -104.6870 360° North 171 197 5,200 1,286 Climbing FlightAware ADS-B
Wed 05:01:55 PM 39.9036 -104.6871 360° North 181 208 6,000 1,660 Climbing FlightAware ADS-B
Wed 05:02:20 PM 39.9204 -104.6876 359° North 203 234 6,500 875 Climbing FlightAware ADS-B
Wed 05:02:43 PM 39.9490 -104.6816 North 240 276 6,700 1,304 Climbing FlightAware ADS-B
Wed 05:03:06 PM 39.9718 -104.6749 13° North 252 290 7,500 2,286 Climbing FlightAware ADS-B (EGHH / BOH)
Wed 05:03:25 PM 39.9844 -104.6714 12° North 272 313 8,300 2,429 Climbing FlightAware ADS-B (EGHH / BOH)
Wed 05:03:48 PM 40.0239 -104.6629 North 278 320 9,200 1,857 Climbing FlightAware ADS-B (EGHH / BOH)
Wed 05:04:07 PM 40.0503 -104.6631 360° North 284 327 9,600 1,000 Climbing FlightAware ADS-B (EGHH / BOH)
Wed 05:04:24 PM 40.0723 -104.6716 344° North 299 344 9,800 400 Climbing FlightAware ADS-B (EGHH / BOH)
Wed 05:04:52 PM 40.1060 -104.6865 341° North 332 382 9,900 1,612 Climbing FlightAware ADS-B (EGHH / BOH)
Wed 05:05:31 PM 40.1727 -104.7043 348° North 347 399 11,600 2,892 Climbing FlightAware ADS-B (EGHH / BOH)
Wed 05:06:15 PM 40.2390 -104.7181 351° North 349 402 13,900 3,000 Climbing FlightAware ADS-B (EGHH / BOH)
Wed 05:06:45 PM 40.2889 -104.7305 349° North 351 404 15,300 2,700 Climbing FlightAware ADS-B
Wed 05:07:15 PM 40.3372 -104.7417 350° North 356 410 16,600 2,818 Climbing FlightAware ADS-B (EGHH / BOH)
Wed 05:07:51 PM 40.3921 -104.7541 350° North 355 409 18,400 2,550 Climbing FlightAware ADS-B
Wed 05:08:35 PM 40.4671 -104.7711 350° North 365 420 20,000 2,023 Climbing FlightAware ADS-B
Wed 05:09:17 PM 40.5394 -104.7886 350° North 375 432 21,300 1,778 Climbing FlightAware ADS-B (EGHH / BOH)
Wed 05:09:56 PM 40.6012 -104.8052 349° North 387 445 22,400 1,899 Climbing FlightAware ADS-B (EGHH / BOH)
Wed 05:10:36 PM 40.6744 -104.8237 349° North 395 455 23,800 1,833 Climbing FlightAware ADS-B (EGHH / BOH)
Wed 05:11:08 PM 40.7202 -104.8349 350° North 401 461 24,600 1,619 Climbing FlightAware ADS-B
Wed 05:11:39 PM 40.7819 -104.8517 348° North 399 459 25,500 1,688 Climbing FlightAware ADS-B (EGHH / BOH)
Wed 05:12:12 PM 40.8035 -104.8601 344° North 396 456 26,400 1,459 Climbing FlightAware ADS-B (CYQT)
Wed 05:12:53 PM 40.9187 -104.9159 340° North 410 472 27,300 1,425 Climbing FlightAware ADS-B (CYQT)
Wed 05:13:32 PM 40.9819 -104.9470 340° North 417 480 28,300 1,417 Climbing FlightAware ADS-B (CYQT)
Wed 05:14:05 PM 41.0503 -104.9807 340° North 421 484 29,000 1,233 Climbing FlightAware ADS-B
Wed 05:14:45 PM 41.1111 -105.0106 340° North 430 495 29,800 1,125 Climbing FlightAware ADS-B (EGHH / BOH)
Wed 05:15:25 PM 41.1953 -105.0576 337° Northwest 429 494 30,500 1,063 Climbing FlightAware ADS-B (EGHH / BOH)
Wed 05:16:04 PM 41.2656 -105.1104 331° Northwest 433 498 31,200 1,050 Climbing FlightAware ADS-B (EGHH / BOH)
Wed 05:16:45 PM 41.3392 -105.1664 330° Northwest 440 506 31,900 987 Climbing FlightAware ADS-B (EGHH / BOH)
Wed 05:17:23 PM 41.4033 -105.2151 330° Northwest 446 513 32,500 951 Climbing FlightAware ADS-B (EGHH / BOH)
Wed 05:18:07 PM 41.4831 -105.2761 330° Northwest 452 520 33,200 951 Climbing FlightAware ADS-B (EGHH / BOH)
Wed 05:18:45 PM 41.5549 -105.3309 330° Northwest 456 525 33,800 1,125 Climbing FlightAware ADS-B (EGHH / BOH)
Wed 05:19:27 PM 41.6228 -105.3833 330° Northwest 451 519 34,700 1,200 Climbing FlightAware ADS-B (EGHH / BOH)
Wed 05:20:10 PM 41.7076 -105.4485 330° Northwest 451 519 35,500 907 Climbing FlightAware ADS-B (EGHH / BOH)
Wed 05:20:53 PM 41.7863 -105.5091 330° Northwest 449 517 36,000 366 Climbing FlightAware ADS-B (EGHH / BOH)
Wed 05:21:32 PM 41.8497 -105.5582 330° Northwest 448 516 36,000  Level FlightAware ADS-B (EGHH / BOH)
Wed 05:22:13 PM 41.9277 -105.6189 330° Northwest 449 517 36,000  Level FlightAware ADS-B (EGHH / BOH)
Wed 05:22:52 PM 41.9886 -105.6664 330° Northwest 448 516 36,000  Level FlightAware ADS-B (EGHH / BOH)
Wed 05:23:33 PM 42.0685 -105.7287 330° Northwest 449 517 36,000  Level FlightAware ADS-B (EGHH / BOH)
Wed 05:24:12 PM 42.1366 -105.7820 330° Northwest 449 517 36,000  Level FlightAware ADS-B (EGHH / BOH)
Wed 05:25:16 PM 42.2516 -105.8724 330° Northwest 450 518 36,000  Level FlightAware ADS-B (EGHH / BOH)
Wed 05:25:52 PM 42.3228 -105.9283 330° Northwest 450 518 36,000  Level FlightAware ADS-B (EGHH / BOH)
Wed 05:26:32 PM 42.3892 -105.9807 330° Northwest 448 516 36,000  Level FlightAware ADS-B (EGHH / BOH)
Wed 05:27:15 PM 42.4715 -106.0459 330° Northwest 447 514 36,000  Level FlightAware ADS-B (EGHH / BOH)
Wed 05:28:36 PM 42.6149 -106.1601 330° Northwest 449 517 36,000  Level FlightAware ADS-B (EGHH / BOH)
Wed 05:29:13 PM 42.6824 -106.2140 330° Northwest 448 516 36,000  Level FlightAware ADS-B (EGHH / BOH)
Wed 05:30:11 PM 42.7792 -106.2911 330° Northwest 447 514 36,000  Level Denver Center
Wed 05:31:12 PM 42.8822 -106.3758 329° Northwest 451 519 36,000  Level Denver Center
Wed 05:32:14 PM 43.0042 -106.4731 330° Northwest 454 522 36,000  Level Denver Center
Wed 05:33:16 PM 43.1086 -106.5575 329° Northwest 455 524 36,000  Level Denver Center
Wed 05:34:18 PM 43.2131 -106.6433 329° Northwest 456 525 36,000  Level Denver Center
Wed 05:34:51 PM 43.2831 -106.7008 329° Northwest 457 526 36,000  Level Salt Lake Center
Wed 05:35:53 PM 43.3869 -106.7869 329° Northwest 457 526 36,000  Level Salt Lake Center
Wed 05:36:55 PM 43.5083 -106.8861 329° Northwest 455 524 36,000  Level Salt Lake Center
Wed 05:37:57 PM 43.6133 -106.9719 329° Northwest 455 524 36,000  Level Salt Lake Center
Wed 05:38:59 PM 43.7214 -107.0656 328° Northwest 459 528 36,000  Level Salt Lake Center
Wed 05:40:01 PM 43.8292 -107.1583 328° Northwest 458 527 36,000  Level Salt Lake Center
Wed 05:41:03 PM 43.9617 -107.2678 329° Northwest 462 532 36,000  Level Salt Lake Center
Wed 05:42:04 PM 44.0725 -107.3586 330° Northwest 463 533 36,000  Level Salt Lake Center
Wed 05:43:06 PM 44.1817 -107.4503 329° Northwest 460 529 36,000  Level Salt Lake Center
Wed 05:44:08 PM 44.2906 -107.5422 329° Northwest 458 527 36,000  Level Salt Lake Center
Wed 05:45:10 PM 44.3986 -107.6350 328° Northwest 457 526 36,000  Level Salt Lake Center
Wed 05:46:12 PM 44.5075 -107.7278 329° Northwest 458 527 36,000  Level Salt Lake Center
Wed 05:47:13 PM 44.6175 -107.8214 329° Northwest 461 531 36,000  Level Salt Lake Center
Wed 05:48:15 PM 44.7272 -107.9142 329° Northwest 457 526 36,000  Level Salt Lake Center
Wed 05:49:17 PM 44.8386 -108.0142 328° Northwest 454 522 36,000  Level Salt Lake Center
Wed 05:50:19 PM 44.9492 -108.1094 329° Northwest 459 528 36,000  Level Salt Lake Center
Wed 05:51:20 PM 45.0800 -108.2242 328° Northwest 460 529 36,000  Level Salt Lake Center
Wed 05:52:22 PM 45.1900 -108.3217 328° Northwest 464 534 36,000  Level Salt Lake Center
Wed 05:53:24 PM 45.2989 -108.4175 328° Northwest 462 532 36,000  Level Salt Lake Center
Wed 05:54:25 PM 45.4072 -108.5139 328° Northwest 459 528 36,000  Level Salt Lake Center
Wed 05:55:27 PM 45.5150 -108.6100 328° Northwest 459 528 36,000  Level Salt Lake Center
Wed 05:56:29 PM 45.6225 -108.7053 328° Northwest 457 526 36,000  Level Salt Lake Center
Wed 05:57:30 PM 45.7292 -108.8014 328° Northwest 455 524 36,000  Level Salt Lake Center
Wed 05:58:32 PM 45.8369 -108.9011 327° Northwest 461 531 36,000  Level Salt Lake Center
Wed 05:59:33 PM 45.9667 -109.0192 328° Northwest 461 531 36,000  Level Salt Lake Center
Wed 06:00:35 PM 46.0739 -109.1167 328° Northwest 459 528 36,000  Level Salt Lake Center
Wed 06:01:37 PM 46.1822 -109.2156 328° Northwest 462 532 36,000  Level Salt Lake Center
Wed 06:02:38 PM 46.2911 -109.3158 328° Northwest 464 534 36,000  Level Salt Lake Center
Wed 06:03:40 PM 46.3986 -109.4167 327° Northwest 463 533 36,000  Level Salt Lake Center
Wed 06:04:41 PM 46.5042 -109.5200 326° Northwest 459 528 36,000  Level Salt Lake Center
Wed 06:05:43 PM 46.6117 -109.6203 327° Northwest 460 529 36,000  Level Salt Lake Center
Wed 06:06:45 PM 46.7297 -109.7311 327° Northwest 462 532 36,000  Level Salt Lake Center
Wed 06:07:46 PM 46.8389 -109.8308 328° Northwest 463 533 36,000  Level Salt Lake Center
Wed 06:08:48 PM 46.9467 -109.9328 327° Northwest 463 533 36,000  Level Salt Lake Center
Wed 06:09:49 PM 47.0533 -110.0364 327° Northwest 462 532 36,000 -49 Level Salt Lake Center
Wed 06:10:51 PM 47.1603 -110.1403 327° Northwest 462 532 35,900 -49 Descending Salt Lake Center
Wed 06:11:52 PM 47.2886 -110.2661 326° Northwest 463 533 35,900  Level Salt Lake Center
Wed 06:12:54 PM 47.3950 -110.3689 327° Northwest 463 533 35,900  Level Salt Lake Center
Wed 06:13:56 PM 47.5044 -110.4742 327° Northwest 469 540 35,900 49 Level Salt Lake Center
Wed 06:14:57 PM 47.6117 -110.5789 327° Northwest 467 537 36,000 49 Climbing Salt Lake Center
Wed 06:15:59 PM 47.7181 -110.6844 326° Northwest 467 537 36,000  Level Salt Lake Center
Wed 06:17:00 PM 47.8244 -110.7897 326° Northwest 466 536 36,000  Level Salt Lake Center
Wed 06:18:02 PM 47.9517 -110.9172 326° Northwest 465 535 36,000  Level Salt Lake Center
Wed 06:19:03 PM 48.0583 -111.0247 326° Northwest 466 536 36,000 -49 Level Salt Lake Center
Wed 06:20:05 PM 48.1661 -111.1328 326° Northwest 468 539 35,900  Descending Salt Lake Center
Wed 06:21:06 PM 48.2736 -111.2417 326° Northwest 470 541 36,000  Climbing Salt Lake Center
Wed 06:22:08 PM 48.3811 -111.3508 326° Northwest 470 541 35,900  Descending Salt Lake Center
Wed 06:23:09 PM 48.4883 -111.4603 326° Northwest 468 539 36,000  Climbing Salt Lake Center
Wed 06:24:11 PM 48.5950 -111.5714 325° Northwest 468 539 35,900  Descending Salt Lake Center
Wed 06:24:52 PM 48.6500 -111.6667 311° West 470 541 36,000 59 Climbing Edmonton Center
Wed 06:25:52 PM 48.7667 -111.7833 327° Northwest 470 541 36,000  Level Edmonton Center
Wed 06:26:52 PM 48.8667 -111.9000 323° Northwest 470 541 36,000  Level Edmonton Center
Wed 06:27:52 PM 48.9833 -112.0167 327° Northwest 470 541 36,000  Level Edmonton Center
Wed 06:28:52 PM 49.1000 -112.1333 327° Northwest 470 541 36,000  Level Edmonton Center
Wed 06:29:52 PM 49.1833 -112.2333 322° Northwest 470 541 36,000  Level Edmonton Center
Wed 06:30:52 PM 49.3000 -112.3500 327° Northwest 470 541 36,000  Level Edmonton Center
Wed 06:31:52 PM 49.4167 -112.4833 323° Northwest 470 541 36,000  Level Edmonton Center
Wed 06:32:52 PM 49.5167 -112.6000 323° Northwest 470 541 36,000  Level Edmonton Center
Wed 06:33:52 PM 49.6333 -112.7000 331° Northwest 470 541 36,000  Level Edmonton Center
Wed 06:34:52 PM 49.7500 -112.8000 331° Northwest 460 529 36,000  Level Edmonton Center
Wed 06:35:52 PM 49.8500 -112.8833 332° Northwest 460 529 36,000  Level Edmonton Center
Wed 06:36:52 PM 49.9833 -113.0000 331° Northwest 460 529 36,000  Level Edmonton Center
Wed 06:37:52 PM 50.1000 -113.1000 331° Northwest 470 541 36,000  Level Edmonton Center
Wed 06:38:52 PM 50.2167 -113.1667 340° North 470 541 36,000  Level Edmonton Center
Wed 06:39:52 PM 50.3333 -113.2667 331° Northwest 470 541 36,000  Level Edmonton Center
Wed 06:40:52 PM 50.4500 -113.3667 331° Northwest 470 541 36,000  Level Edmonton Center
Wed 06:41:52 PM 50.5500 -113.4667 328° Northwest 470 541 36,000  Level Edmonton Center
Wed 06:42:52 PM 50.6667 -113.5500 336° Northwest 470 541 36,000  Level Edmonton Center
Wed 06:43:52 PM 50.8000 -113.6500 335° Northwest 470 541 36,000  Level Edmonton Center
Wed 06:44:52 PM 50.9000 -113.7500 328° Northwest 470 541 36,000  Level Edmonton Center
Wed 06:45:52 PM 51.0333 -113.8667 331° Northwest 470 541 36,000  Level Edmonton Center
Wed 06:46:52 PM 51.1333 -113.9667 328° Northwest 460 529 36,000  Level Edmonton Center
Wed 06:47:52 PM 51.2333 -114.1167 317° Northwest 460 529 36,000  Level Edmonton Center
Wed 06:48:52 PM 51.3167 -114.2500 315° West 480 552 36,000  Level Edmonton Center
Wed 06:49:52 PM 51.4333 -114.3833 325° Northwest 470 541 36,000  Level Edmonton Center
Wed 06:50:52 PM 51.5167 -114.5333 312° West 470 541 36,000  Level Edmonton Center
Wed 06:51:52 PM 51.6333 -114.6667 325° Northwest 470 541 36,000  Level Edmonton Center
Wed 06:52:52 PM 51.7333 -114.8000 320° Northwest 470 541 36,000  Level Edmonton Center
Wed 06:53:52 PM 51.8167 -114.9667 309° West 470 541 36,000  Level Edmonton Center
Wed 06:54:52 PM 51.9333 -115.1000 325° Northwest 470 541 36,000  Level Edmonton Center
Wed 06:55:52 PM 52.0167 -115.2333 315° West 470 541 36,000  Level Edmonton Center
Wed 06:56:52 PM 52.1167 -115.4000 314° West 470 541 36,000  Level Edmonton Center
Wed 06:57:52 PM 52.2167 -115.5333 321° Northwest 470 541 36,000  Level Edmonton Center
Wed 06:58:52 PM 52.3167 -115.7000 314° West 480 552 36,000  Level Edmonton Center
Wed 06:59:52 PM 52.4000 -115.8333 316° Northwest 470 541 36,000  Level Edmonton Center
Wed 07:00:52 PM 52.5167 -115.9667 325° Northwest 470 541 36,000  Level Edmonton Center
Wed 07:01:52 PM 52.6167 -116.1333 315° West 480 552 36,000  Level Edmonton Center
Wed 07:02:52 PM 52.7000 -116.2667 316° Northwest 480 552 36,000  Level Edmonton Center
Wed 07:03:52 PM 52.8000 -116.4333 315° West 470 541 36,000  Level Edmonton Center
Wed 07:04:52 PM 52.9000 -116.5833 318° Northwest 480 552 36,000  Level Edmonton Center
Wed 07:05:52 PM 53.0000 -116.7167 321° Northwest 480 552 36,000  Level Edmonton Center
Wed 07:06:52 PM 53.1000 -116.9000 312° West 480 552 36,000  Level Edmonton Center
Wed 07:07:52 PM 53.2000 -117.0333 321° Northwest 470 541 36,000  Level Edmonton Center
Wed 07:08:52 PM 53.3000 -117.1833 318° Northwest 470 541 36,000  Level Edmonton Center
Wed 07:09:52 PM 53.3833 -117.3500 310° West 480 552 36,000  Level Edmonton Center
Wed 07:10:52 PM 53.4833 -117.5000 318° Northwest 480 552 36,000  Level Edmonton Center
Wed 07:11:52 PM 53.5833 -117.6500 318° Northwest 480 552 36,000  Level Edmonton Center
Wed 07:12:52 PM 53.6833 -117.8167 315° West 480 552 36,000  Level Edmonton Center
Wed 07:13:52 PM 53.7667 -117.9667 313° West 480 552 36,000  Level Edmonton Center
Wed 07:14:52 PM 53.8667 -118.1500 313° West 480 552 36,000  Level Edmonton Center
Wed 07:15:52 PM 53.9667 -118.3000 319° Northwest 490 564 36,000  Level Edmonton Center
Wed 07:16:52 PM 54.0667 -118.4667 316° Northwest 490 564 36,000  Level Edmonton Center
Wed 07:17:52 PM 54.1667 -118.6167 319° Northwest 490 564 36,000  Level Edmonton Center
Wed 07:18:52 PM 54.2667 -118.7667 319° Northwest 490 564 36,000  Level Edmonton Center
Wed 07:19:52 PM 54.3667 -118.9500 313° West 480 552 36,000  Level Edmonton Center
Wed 07:20:52 PM 54.4500 -119.1000 314° West 480 552 36,000  Level Edmonton Center
Wed 07:21:52 PM 54.5500 -119.2833 313° West 480 552 36,000  Level Edmonton Center
Wed 07:22:52 PM 54.6500 -119.4500 316° Northwest 480 552 36,000  Level Edmonton Center
Wed 07:23:52 PM 54.7333 -119.6000 314° West 480 552 36,000  Level Edmonton Center
Wed 07:24:52 PM 54.8167 -119.7833 308° West 480 552 36,000  Level Edmonton Center
Wed 07:25:52 PM 54.9333 -119.9500 321° Northwest 480 552 36,000  Level Edmonton Center
Wed 07:26:52 PM 55.0167 -120.1333 308° West 480 552 36,000  Level Edmonton Center
Wed 07:27:52 PM 55.0833 -120.3333 300° West 480 552 36,000  Level Edmonton Center
Wed 07:28:52 PM 55.1667 -120.5167 309° West 480 552 36,000  Level Edmonton Center
Wed 07:29:52 PM 55.2500 -120.7167 306° West 480 552 36,000  Level Edmonton Center
Wed 07:30:52 PM 55.3167 -120.8833 305° West 480 552 36,000  Level Edmonton Center
Wed 07:31:52 PM 55.4167 -121.1167 307° West 480 552 36,000  Level Edmonton Center
Wed 07:32:52 PM 55.4833 -121.3000 303° West 480 552 36,000  Level Edmonton Center
Wed 07:33:52 PM 55.5500 -121.4833 303° West 480 552 36,000  Level Edmonton Center
Wed 07:34:52 PM 55.6333 -121.7000 304° West 480 552 36,000  Level Edmonton Center
Wed 07:35:52 PM 55.7167 -121.8833 309° West 480 552 36,000  Level Edmonton Center
Wed 07:36:52 PM 55.8000 -122.0833 307° West 480 552 36,000  Level Edmonton Center
Wed 07:37:52 PM 55.8667 -122.2667 303° West 480 552 36,000  Level Edmonton Center
Wed 07:38:52 PM 55.9333 -122.4833 299° West 480 552 36,000  Level Edmonton Center
Wed 07:39:52 PM 56.0167 -122.6833 307° West 480 552 36,000  Level Edmonton Center
Wed 07:40:52 PM 56.1000 -122.8833 307° West 480 552 36,000  Level Edmonton Center
Wed 07:41:52 PM 56.1667 -123.1000 299° West 480 552 36,000  Level Edmonton Center
Wed 07:42:52 PM 56.2333 -123.3000 301° West 480 552 36,000  Level Edmonton Center
Wed 07:43:52 PM 56.3167 -123.4833 309° West 480 552 36,000  Level Edmonton Center
Wed 07:44:52 PM 56.3833 -123.6833 301° West 480 552 36,000  Level Edmonton Center
Wed 07:45:52 PM 56.4500 -123.9167 297° West 480 552 36,000  Level Edmonton Center
Wed 07:46:52 PM 56.5333 -124.1000 310° West 480 552 36,000  Level Edmonton Center
Wed 07:47:52 PM 56.6167 -124.3167 305° West 480 552 36,000  Level Edmonton Center
Wed 07:48:52 PM 56.6833 -124.5167 301° West 480 552 36,000  Level Edmonton Center
Wed 07:49:52 PM 56.7500 -124.7000 304° West 480 552 36,000  Level Edmonton Center
Wed 07:50:52 PM 56.8333 -124.9500 301° West 490 564 36,000  Level Edmonton Center
Wed 07:51:52 PM 56.9000 -125.1500 301° West 490 564 36,000  Level Edmonton Center
Wed 07:52:52 PM 56.9500 -125.4000 290° West 490 564 36,000  Level Edmonton Center
Wed 07:53:52 PM 57.0167 -125.6000 302° West 490 564 36,000 61 Level Edmonton Center
Wed 08:25:41 PM 58.6000 -133.1667 288° West 510 587 38,000 61 Climbing Anchorage Center
Wed 08:26:00 PM 58.5765 -132.9841 288° West  Level FlightAware Approximate
Wed 08:26:42 PM 58.6500 -133.4333 290° West 510 587 38,000  Level Anchorage Center
Wed 08:27:00 PM 58.6176 -133.2242 288° West  Level FlightAware Approximate
Wed 08:27:42 PM 58.6833 -133.6833 284° West 500 575 38,000  Level Anchorage Center
Wed 08:28:00 PM 58.6582 -133.4648 288° West  Level FlightAware Approximate
Wed 08:28:42 PM 58.7333 -133.9333 291° West 510 587 38,000  Level Anchorage Center
Wed 08:29:00 PM 58.6984 -133.7060 288° West  Level FlightAware Approximate
Wed 08:29:43 PM 58.7667 -134.2000 284° West 500 575 38,000  Level Anchorage Center
Wed 08:30:00 PM 58.7349 -133.9495 285° West  Level FlightAware Approximate
Wed 08:30:43 PM 58.8167 -134.4500 291° West 500 575 38,000  Level Anchorage Center
Wed 08:31:00 PM 58.7686 -134.1948 288° West  Level FlightAware Approximate
Wed 08:31:43 PM 58.8500 -134.7167 284° West 500 575 38,000  Level Anchorage Center
Wed 08:32:44 PM 58.9000 -134.9667 291° West 500 575 38,000  Level Anchorage Center
Wed 08:33:44 PM 58.9333 -135.2333 284° West 500 575 38,000  Level Anchorage Center
Wed 08:34:45 PM 58.9667 -135.4833 285° West 500 575 38,000  Level Anchorage Center
Wed 08:35:45 PM 59.0000 -135.7167 286° West 490 564 38,000  Level Anchorage Center
Wed 08:36:45 PM 59.0333 -135.9667 285° West 500 575 38,000  Level Anchorage Center
Wed 08:37:46 PM 59.0833 -136.2333 290° West 500 575 38,000  Level Anchorage Center
Wed 08:38:46 PM 59.1167 -136.5000 284° West 500 575 38,000  Level Anchorage Center
Wed 08:39:46 PM 59.1500 -136.8167 282° West 500 575 38,000  Level Anchorage Center
Wed 08:40:47 PM 59.2000 -137.0667 291° West 490 564 38,000  Level Anchorage Center
Wed 08:41:47 PM 59.2333 -137.3333 284° West 490 564 38,000  Level Anchorage Center
Wed 08:42:47 PM 59.2667 -137.6000 284° West 500 575 38,000  Level Anchorage Center
Wed 08:43:48 PM 59.3000 -137.8667 284° West 500 575 38,000  Level Anchorage Center
Wed 08:44:48 PM 59.3333 -138.1333 284° West 500 575 38,000  Level Anchorage Center
Wed 08:45:48 PM 59.3667 -138.3833 285° West 500 575 38,000  Level Anchorage Center
Wed 08:46:48 PM 59.3833 -138.6500 277° West 500 575 38,000  Level Anchorage Center
Wed 08:47:49 PM 59.4167 -138.9167 284° West 490 564 38,000  Level Anchorage Center
Wed 08:48:49 PM 59.4500 -139.1833 284° West 490 564 38,000  Level Anchorage Center
Wed 08:49:49 PM 59.4833 -139.4500 284° West 490 564 38,000  Level Anchorage Center
Wed 08:50:50 PM 59.5000 -139.6833 278° West 490 564 38,000  Level Anchorage Center
Wed 08:51:50 PM 59.5333 -139.9500 284° West 490 564 38,000  Level Anchorage Center
Wed 08:52:50 PM 59.5500 -140.2333 277° West 510 587 38,000  Level Anchorage Center
Wed 08:53:51 PM 59.5667 -140.5000 277° West 490 564 38,000  Level Anchorage Center
Wed 08:54:51 PM 59.5833 -140.7667 277° West 480 552 38,000  Level Anchorage Center
Wed 08:55:51 PM 59.6000 -141.0333 277° West 490 564 38,000  Level Anchorage Center
Wed 08:56:52 PM 59.6167 -141.3000 277° West 490 564 38,000  Level Anchorage Center
Wed 08:57:52 PM 59.6333 -141.5667 277° West 490 564 38,000  Level Anchorage Center
Wed 08:58:53 PM 59.6500 -141.8333 277° West 480 552 38,000  Level Anchorage Center
Wed 08:59:53 PM 59.6667 -142.1000 277° West 480 552 38,000  Level Anchorage Center
Wed 09:00:53 PM 59.6833 -142.3667 277° West 490 564 38,000  Level Anchorage Center
Wed 09:01:54 PM 59.7000 -142.6333 277° West 490 564 38,000  Level Anchorage Center
Wed 09:02:54 PM 59.7167 -142.9000 277° West 480 552 38,000  Level Anchorage Center
Wed 09:03:54 PM 59.7167 -143.1667 270° West 480 552 38,000  Level Anchorage Center
Wed 09:04:55 PM 59.7333 -143.4333 277° West 480 552 38,000 149 Level Anchorage Center
Wed 09:05:55 PM 59.7500 -143.7000 277° West 490 564 38,300 293 Climbing Anchorage Center
Wed 09:11:44 PM 59.8168 -145.3106 277° West 491 565 40,000 269 Climbing FlightAware ADS-B
Wed 09:12:14 PM 59.8216 -145.4623 274° West 492 566 40,000  Level FlightAware ADS-B
Wed 09:12:44 PM 59.8257 -145.5944 274° West 493 567 40,000  Level FlightAware ADS-B
Wed 09:13:14 PM 59.8295 -145.7269 273° West 494 568 40,000  Level FlightAware ADS-B
Wed 09:13:58 PM 59.8353 -145.9320 273° West 495 570 40,000  Level FlightAware ADS-B
Wed 09:14:29 PM 59.8390 -146.0690 273° West 497 572 40,000  Level FlightAware ADS-B
Wed 09:14:59 PM 59.8425 -146.2052 273° West 496 571 40,000  Level FlightAware ADS-B
Wed 09:15:38 PM 59.8465 -146.3683 273° West 494 568 40,000  Level FlightAware ADS-B
Wed 09:16:14 PM 59.8506 -146.5441 273° West 492 566 40,000  Level FlightAware ADS-B
Wed 09:16:44 PM 59.8531 -146.6602 273° West 490 564 40,000  Level FlightAware ADS-B
Wed 09:17:28 PM 59.8575 -146.8652 273° West 487 560 40,000  Level FlightAware ADS-B
Wed 09:17:59 PM 59.8604 -147.0125 272° West 487 560 40,000  Level FlightAware ADS-B
Wed 09:18:44 PM 59.8641 -147.2153 272° West 488 562 40,000  Level FlightAware ADS-B
Wed 09:19:14 PM 59.8664 -147.3495 272° West 488 562 40,000  Level FlightAware ADS-B
Wed 09:19:59 PM 59.8695 -147.5504 272° West 490 564 40,000  Level FlightAware ADS-B
Wed 09:20:29 PM 59.8715 -147.6861 272° West 490 564 40,000  Level FlightAware ADS-B
Wed 09:21:00 PM 59.8733 -147.8209 272° West 490 564 40,000  Level FlightAware ADS-B
Wed 09:21:30 PM 59.8750 -147.9552 271° West 487 560 40,000  Level FlightAware ADS-B
Wed 09:22:15 PM 59.8773 -148.1593 271° West 485 558 40,000  Level FlightAware ADS-B
Wed 09:22:45 PM 59.8787 -148.2936 271° West 485 558 40,000  Level FlightAware ADS-B
Wed 09:23:29 PM 59.8803 -148.4886 271° West 485 558 40,000  Level FlightAware ADS-B
Wed 09:24:00 PM 59.8813 -148.6276 271° West 486 559 40,000  Level FlightAware ADS-B
Wed 09:24:38 PM 59.8824 -148.7959 271° West 486 559 40,000  Level FlightAware ADS-B
Wed 09:25:15 PM 59.8827 -148.9564 270° West 486 559 40,000  Level FlightAware ADS-B
Wed 09:25:57 PM 59.8778 -149.1492 267° West 488 562 40,000  Level FlightAware ADS-B
Wed 09:26:30 PM 59.8721 -149.2989 266° West 486 559 40,000  Level FlightAware ADS-B
Wed 09:27:14 PM 59.8644 -149.4907 266° West 486 559 40,000  Level FlightAware ADS-B
Wed 09:27:45 PM 59.8589 -149.6235 265° West 485 558 40,000  Level FlightAware ADS-B
Wed 09:28:19 PM 59.8529 -149.7653 265° West 485 558 40,000  Level FlightAware ADS-B
Wed 09:28:58 PM 59.8447 -149.9549 265° West 486 559 40,000  Level FlightAware ADS-B
Wed 09:29:29 PM 59.8387 -150.0879 265° West 486 559 40,000  Level FlightAware ADS-B
Wed 09:29:59 PM 59.8325 -150.2228 265° West 487 560 40,000  Level FlightAware ADS-B
Wed 09:30:39 PM 59.8245 -150.3952 265° West 487 560 40,000  Level FlightAware ADS-B
Wed 09:31:15 PM 59.8165 -150.5606 265° West 488 562 40,000  Level FlightAware ADS-B
Wed 09:31:59 PM 59.8073 -150.7448 264° West 490 564 40,000  Level FlightAware ADS-B
Wed 09:32:30 PM 59.7996 -150.8963 264° West 490 564 40,000  Level FlightAware ADS-B
Wed 09:33:00 PM 59.7928 -151.0263 264° West 490 564 40,000  Level FlightAware ADS-B
Wed 09:33:30 PM 59.7862 -151.1519 264° West 490 564 40,000  Level FlightAware ADS-B
Wed 09:34:00 PM 59.7783 -151.2987 264° West 489 563 40,000  Level FlightAware ADS-B
Wed 09:34:30 PM 59.7712 -151.4277 264° West 490 564 40,000  Level FlightAware ADS-B
Wed 09:35:00 PM 59.7636 -151.5636 264° West 489 563 40,000  Level FlightAware ADS-B
Wed 09:35:45 PM 59.7524 -151.7576 264° West 491 565 40,000  Level FlightAware ADS-B
Wed 09:36:15 PM 59.7442 -151.8978 263° West 492 566 40,000  Level FlightAware ADS-B
Wed 09:36:46 PM 59.7368 -152.0210 263° West 493 567 40,000  Level FlightAware ADS-B
Wed 09:37:16 PM 59.7281 -152.1636 263° West 492 566 40,000  Level FlightAware ADS-B
Wed 09:38:01 PM 59.7154 -152.3681 263° West 491 565 40,000  Level FlightAware ADS-B
Wed 09:38:31 PM 59.7069 -152.5033 263° West 492 566 40,000  Level FlightAware ADS-B
Wed 09:39:16 PM 59.6939 -152.7023 263° West 494 568 40,000  Level FlightAware ADS-B
Wed 09:40:01 PM 59.6810 -152.8971 263° West 494 568 40,000  Level FlightAware ADS-B
Wed 09:40:45 PM 59.6672 -153.1010 262° West 492 566 40,000  Level FlightAware ADS-B
Wed 09:41:17 PM 59.6576 -153.2391 262° West 490 564 40,000  Level FlightAware ADS-B
Wed 09:41:47 PM 59.6483 -153.3725 262° West 489 563 40,000  Level FlightAware ADS-B
Wed 09:42:17 PM 59.6389 -153.5039 262° West 489 563 40,000  Level FlightAware ADS-B
Wed 09:42:48 PM 59.6289 -153.6421 262° West 488 562 40,000  Level FlightAware ADS-B
Wed 09:43:18 PM 59.6192 -153.7739 262° West 488 562 40,000  Level FlightAware ADS-B
Wed 09:44:02 PM 59.6045 -153.9700 262° West 484 557 40,000  Level FlightAware ADS-B
Wed 09:44:33 PM 59.5964 -154.0768 261° West 481 554 40,000  Level FlightAware ADS-B
Wed 09:45:17 PM 59.5815 -154.2689 261° West 481 554 40,000  Level FlightAware ADS-B
Wed 09:45:48 PM 59.5707 -154.4070 261° West 480 552 40,000  Level FlightAware ADS-B
Wed 09:46:33 PM 59.5538 -154.6178 261° West 478 550 40,000  Level FlightAware ADS-B
Wed 09:47:18 PM 59.5392 -154.7967 261° West 479 551 40,000  Level FlightAware ADS-B
Wed 09:47:48 PM 59.5277 -154.9356 261° West 477 549 40,000  Level FlightAware ADS-B
Wed 09:48:18 PM 59.5163 -155.0706 261° West 477 549 40,000  Level FlightAware ADS-B
Wed 09:49:03 PM 59.5002 -155.2599 261° West 478 550 40,000  Level FlightAware ADS-B
Wed 09:49:33 PM 59.4896 -155.3820 260° West 478 550 40,000  Level FlightAware ADS-B
Wed 09:50:17 PM 59.4728 -155.5746 260° West 477 549 40,000  Level FlightAware ADS-B
Wed 09:50:48 PM 59.4618 -155.6974 260° West 478 550 40,000  Level FlightAware ADS-B
Wed 09:51:33 PM 59.4448 -155.8861 260° West 481 554 40,000  Level FlightAware ADS-B
Wed 09:52:03 PM 59.4315 -156.0311 260° West 483 556 40,000  Level FlightAware ADS-B
Wed 09:53:03 PM 59.4097 -156.2656 260° West 483 556 40,000  Level FlightAware ADS-B
Wed 09:53:48 PM 59.3903 -156.4697 260° West 483 556 40,000  Level FlightAware ADS-B
Wed 09:54:18 PM 59.3770 -156.6070 259° West 484 557 40,000  Level FlightAware ADS-B
Wed 09:55:03 PM 59.3589 -156.7917 259° West 485 558 40,000  Level FlightAware ADS-B
Wed 09:55:33 PM 59.3450 -156.9320 259° West 486 559 40,000  Level FlightAware ADS-B
Wed 09:56:04 PM 59.3321 -157.0612 259° West 487 560 40,000  Level FlightAware ADS-B
Wed 09:56:34 PM 59.3199 -157.1819 259° West 487 560 40,000  Level FlightAware ADS-B
Wed 09:57:18 PM 59.2993 -157.3837 259° West 489 563 40,000  Level FlightAware ADS-B
Wed 09:58:13 PM 59.2667 -157.5667 259° West 480 552 40,000  Level Anchorage Center
Wed 09:59:13 PM 59.2500 -157.8167 263° West 490 564 40,000  Level Anchorage Center
Wed 10:00:13 PM 59.2167 -158.0833 256° West 480 552 40,000  Level Anchorage Center
Wed 10:01:14 PM 59.1833 -158.3500 256° West 490 564 40,000  Level Anchorage Center
Wed 10:02:14 PM 59.1667 -158.6000 263° West 490 564 40,000  Level Anchorage Center
Wed 10:03:14 PM 59.1333 -158.8667 256° West 490 564 40,000  Level Anchorage Center
Wed 10:04:15 PM 59.1000 -159.1167 256° West 490 564 40,000  Level Anchorage Center
Wed 10:05:15 PM 59.0667 -159.3833 256° West 490 564 40,000  Level Anchorage Center
Wed 10:06:16 PM 59.0333 -159.6667 257° West 480 552 40,000  Level Anchorage Center
Wed 10:07:16 PM 59.0000 -159.9167 256° West 490 564 40,000  Level Anchorage Center
Wed 10:08:16 PM 58.9667 -160.1833 256° West 500 575 40,000  Level Anchorage Center
Wed 10:09:17 PM 58.9167 -160.4333 249° West 500 575 40,000  Level Anchorage Center
Wed 10:10:17 PM 58.8833 -160.7000 257° West 490 564 40,000  Level Anchorage Center
Wed 10:11:17 PM 58.8500 -160.9500 256° West 500 575 40,000  Level Anchorage Center
Wed 10:12:18 PM 58.8000 -161.2167 250° West 500 575 40,000  Level Anchorage Center
Wed 10:13:17 PM 58.7500 -161.4667 249° West 500 575 40,000  Level Anchorage Center
Wed 10:14:18 PM 58.7167 -161.7167 256° West 480 552 40,000  Level Anchorage Center
Wed 10:15:18 PM 58.6667 -162.0167 252° West 520 598 40,000  Level Anchorage Center
Wed 10:16:18 PM 58.6167 -162.2667 249° West 500 575 40,000  Level Anchorage Center
Wed 10:17:19 PM 58.5667 -162.5167 249° West 500 575 40,000  Level Anchorage Center
Wed 10:18:19 PM 58.5333 -162.7833 257° West 500 575 40,000  Level Anchorage Center
Wed 10:19:19 PM 58.4833 -163.0333 249° West 510 587 40,000  Level Anchorage Center
Wed 10:20:20 PM 58.4500 -163.2833 256° West 500 575 40,000  Level Anchorage Center
Wed 10:21:20 PM 58.4000 -163.5500 250° West 500 575 40,000  Level Anchorage Center
Wed 10:22:27 PM 58.3500 -163.8000 249° West 510 587 40,000  Level Anchorage Center
Wed 10:23:27 PM 58.3000 -164.0500 249° West 500 575 40,000  Level Anchorage Center
Wed 10:24:27 PM 58.2500 -164.3167 250° West 510 587 40,000  Level Anchorage Center
Wed 10:25:27 PM 58.2000 -164.5667 249° West 510 587 40,000  Level Anchorage Center
Wed 10:26:27 PM 58.1500 -164.8167 249° West 510 587 40,000  Level Anchorage Center
Wed 10:27:27 PM 58.1000 -165.0667 249° West 510 587 40,000  Level Anchorage Center
Wed 10:28:27 PM 58.0500 -165.3333 251° West 510 587 40,000  Level Anchorage Center
Wed 10:29:28 PM 58.0000 -165.5833 249° West 510 587 40,000  Level Anchorage Center
Wed 10:30:28 PM 57.9500 -165.8333 249° West 510 587 40,000  Level Anchorage Center
Wed 10:31:27 PM 57.9000 -166.0833 249° West 510 587 40,000  Level Anchorage Center
Wed 10:32:28 PM 57.8333 -166.3500 245° Southwest 510 587 40,000  Level Anchorage Center
Wed 10:33:28 PM 57.7833 -166.6000 250° West 510 587 40,000  Level Anchorage Center
Wed 10:34:28 PM 57.7333 -166.8667 251° West 520 598 40,000  Level Anchorage Center
Wed 10:35:28 PM 57.6667 -167.1167 244° Southwest 520 598 40,000  Level Anchorage Center
Wed 10:36:28 PM 57.6167 -167.3667 250° West 520 598 40,000  Level Anchorage Center
Wed 10:37:28 PM 57.5667 -167.6167 250° West 520 598 40,000  Level Anchorage Center
Wed 10:38:28 PM 57.5000 -167.8667 244° Southwest 520 598 40,000  Level Anchorage Center
Wed 10:39:28 PM 57.4500 -168.1167 250° West 530 610 40,000  Level Anchorage Center
Wed 10:40:28 PM 57.3833 -168.3667 244° Southwest 520 598 40,000  Level Anchorage Center
Wed 10:41:28 PM 57.3333 -168.6167 250° West 520 598 40,000  Level Anchorage Center
Wed 10:42:28 PM 57.2667 -168.8667 244° Southwest 520 598 40,000  Level Anchorage Center
Wed 10:43:28 PM 57.2167 -169.1000 248° West 520 598 40,000  Level Anchorage Center
Wed 10:44:28 PM 57.1500 -169.3500 244° Southwest 520 598 40,000  Level Anchorage Center
Wed 10:45:28 PM 57.0833 -169.6000 244° Southwest 520 598 40,000  Level Anchorage Center
Wed 10:46:28 PM 57.0333 -169.8500 250° West 520 598 40,000  Level Anchorage Center
Wed 10:47:29 PM 56.9833 -170.0500 245° Southwest 510 587 40,000  Level Anchorage Center
Wed 10:48:29 PM 56.9500 -170.3167 257° West 520 598 40,000  Level Anchorage Center
Wed 10:49:29 PM 56.9000 -170.5833 251° West 520 598 40,000  Level Anchorage Center
Wed 10:50:28 PM 56.8667 -170.8333 256° West 520 598 40,000  Level Anchorage Center
Wed 10:51:29 PM 56.8333 -171.1000 257° West 510 587 40,000  Level Anchorage Center
Wed 10:52:29 PM 56.8167 -171.3667 264° West 520 598 40,000  Level Anchorage Center
Wed 10:53:29 PM 56.7833 -171.6333 257° West 520 598 40,000  Level Anchorage Center
Wed 10:54:29 PM 56.7667 -171.8833 263° West 520 598 40,000  Level Anchorage Center
Wed 10:55:29 PM 56.7333 -172.1667 258° West 530 610 40,000  Level Anchorage Center
Wed 10:56:29 PM 56.7000 -172.4167 256° West 530 610 40,000  Level Anchorage Center
Wed 10:57:29 PM 56.6833 -172.6833 264° West 530 610 40,000  Level Anchorage Center
Wed 10:58:29 PM 56.6500 -172.9500 257° West 530 610 40,000  Level Anchorage Center
Wed 10:59:29 PM 56.6333 -173.2167 264° West 530 610 40,000  Level Anchorage Center
Wed 11:00:29 PM 56.6000 -173.4833 257° West 530 610 40,000  Level Anchorage Center
Wed 11:01:30 PM 56.5667 -173.7500 257° West 530 610 40,000  Level Anchorage Center
Wed 11:02:29 PM 56.5333 -174.0167 257° West 540 621 40,000  Level Anchorage Center
Wed 11:03:29 PM 56.5167 -174.2833 264° West 520 598 40,000  Level Anchorage Center
Wed 11:04:30 PM 56.4833 -174.5333 257° West 520 598 40,000  Level Anchorage Center
Wed 11:05:30 PM 56.4500 -174.8000 257° West 520 598 40,000  Level Anchorage Center
Wed 11:06:30 PM 56.4167 -175.0500 257° West 520 598 40,000  Level Anchorage Center
Wed 11:07:30 PM 56.3833 -175.3167 257° West 520 598 40,000  Level Anchorage Center
Wed 11:08:30 PM 56.3500 -175.5667 257° West 520 598 40,000  Level Anchorage Center
Wed 11:09:30 PM 56.3167 -175.8167 257° West 520 598 40,000  Level Anchorage Center
Wed 11:10:30 PM 56.2833 -176.0833 257° West 530 610 40,000  Level Anchorage Center
Wed 11:11:30 PM 56.2500 -176.3333 257° West 530 610 40,000  Level Anchorage Center
Wed 11:12:31 PM 56.2167 -176.6000 257° West 520 598 40,000  Level Anchorage Center
Wed 11:13:30 PM 56.1833 -176.8500 257° West 530 610 40,000  Level Anchorage Center
Wed 11:14:30 PM 56.1667 -177.1167 264° West 530 610 40,000  Level Anchorage Center
Wed 11:19:21 PM 56.0000 -178.1667 255° West 529 609 40,000  Level Anchorage Center
Wed 11:27:18 PM 55.6500 179.6500 253° West 533 613 40,000  Level Anchorage Center
Wed 11:28:09 PM 55.6167 179.4333 253° West 532 612 40,000  Level Anchorage Center
Wed 11:35:22 PM 55.2833 177.6500 250° West 530 610 40,000  Level Anchorage Center
Wed 11:36:00 PM 55.2504 177.4567 251° West 532 612 40,000  Level FlightAware Transoceanic
Wed 11:36:22 PM 55.2333 177.4333 248° West 540 621 40,000  Level Anchorage Center
Wed 11:37:00 PM 55.2024 177.2123 251° West 532 612 40,000  Level FlightAware Transoceanic
Wed 11:37:22 PM 55.1833 177.1667 252° West 540 621 40,000  Level Anchorage Center
Wed 11:38:00 PM 55.1539 176.9684 251° West 532 612 40,000  Level FlightAware Transoceanic
Wed 11:38:22 PM 55.1333 176.9000 252° West 530 610 40,000  Level Anchorage Center
Wed 11:39:00 PM 55.1049 176.7251 251° West 532 612 40,000  Level FlightAware Transoceanic
Wed 11:39:18 PM 55.0833 176.6833 248° West 540 621 40,000  Level Anchorage Center
Wed 11:40:00 PM 55.0555 176.4824 250° West 532 612 40,000  Level FlightAware Transoceanic
Wed 11:40:18 PM 55.0500 176.4667 255° West 530 610 40,000  Level Anchorage Center
Wed 11:41:19 PM 54.9833 176.2000 247° West 530 610 40,000  Level Anchorage Center
Wed 11:42:18 PM 54.9500 176.0000 254° West 530 610 40,000  Level Anchorage Center
Wed 11:43:19 PM 54.8833 175.7333 247° West 530 610 40,000  Level Anchorage Center
Wed 11:44:19 PM 54.8333 175.4667 252° West 530 610 40,000  Level Anchorage Center
Wed 11:45:19 PM 54.7833 175.2500 248° West 530 610 40,000  Level Anchorage Center
Wed 11:46:19 PM 54.7333 175.0000 251° West 530 610 40,000  Level Anchorage Center
Wed 11:47:19 PM 54.6833 174.7833 248° West 530 610 40,000  Level Anchorage Center
Wed 11:48:19 PM 54.6333 174.5333 251° West 530 610 40,000  Level Anchorage Center
Wed 11:49:19 PM 54.5833 174.3167 248° West 530 610 40,000  Level Anchorage Center
Wed 11:50:19 PM 54.5333 174.0667 251° West 530 610 40,000  Level Anchorage Center
Wed 11:51:19 PM 54.4667 173.8167 245° Southwest 530 610 40,000  Level Anchorage Center
Wed 11:52:19 PM 54.4167 173.6000 248° West 530 610 40,000  Level Anchorage Center
Wed 11:53:19 PM 54.3500 173.3500 245° Southwest 530 610 40,000  Level Anchorage Center
Wed 11:54:19 PM 54.3167 173.1500 254° West 520 598 40,000  Level Anchorage Center
Wed 11:55:19 PM 54.2500 172.9000 246° West 530 610 40,000  Level Anchorage Center
Wed 11:56:20 PM 54.2000 172.7000 247° West 510 587 40,000  Level Anchorage Center
Wed 11:57:20 PM 54.1167 172.4833 237° Southwest 510 587 40,000  Level Anchorage Center
Wed 11:58:19 PM 54.0167 172.2500 234° Southwest 510 587 40,000  Level Anchorage Center
Wed 11:59:20 PM 53.9500 172.0833 236° Southwest 530 610 40,000  Level Anchorage Center
Thu 12:00:20 AM 53.8667 171.8667 237° Southwest 520 598 40,000  Level Anchorage Center
Thu 12:02:20 AM 53.7000 171.4667 235° Southwest 530 610 40,000  Level Anchorage Center
Thu 12:03:20 AM 53.6167 171.3000 230° Southwest 520 598 40,000  Level Anchorage Center
Thu 12:04:20 AM 53.5333 171.0833 237° Southwest 520 598 40,000  Level Anchorage Center
Thu 12:05:20 AM 53.4333 170.8833 230° Southwest 510 587 40,000  Level Anchorage Center
Thu 12:06:20 AM 53.3667 170.7000 239° Southwest 520 598 40,000  Level Anchorage Center
Thu 12:07:20 AM 53.2667 170.5000 230° Southwest 510 587 40,000  Level Anchorage Center
Thu 12:08:20 AM 53.2000 170.3333 236° Southwest 520 598 40,000  Level Anchorage Center
Thu 12:09:20 AM 53.1000 170.1167 233° Southwest 510 587 40,000  Level Anchorage Center
Thu 12:10:21 AM 53.0167 169.9500 230° Southwest 530 610 40,000  Level Anchorage Center
Thu 12:11:20 AM 52.9333 169.7333 238° Southwest 520 598 40,000  Level Anchorage Center
Thu 12:12:21 AM 52.8833 169.5500 246° West 530 610 40,000  Level Anchorage Center
Thu 12:13:20 AM 52.8000 169.3333 238° Southwest 510 587 40,000  Level Anchorage Center
Thu 12:14:20 AM 52.7333 169.1000 245° Southwest 510 587 40,000  Level Anchorage Center
Thu 12:15:21 AM 52.6667 168.9167 239° Southwest 510 587 40,000  Level Anchorage Center
Thu 12:16:21 AM 52.6000 168.7000 243° Southwest 510 587 40,000  Level Anchorage Center
Thu 12:17:21 AM 52.5167 168.5333 231° Southwest 520 598 40,000  Level Anchorage Center
Thu 12:18:21 AM 52.4500 168.3167 243° Southwest 480 552 40,000  Level Anchorage Center
Thu 12:19:21 AM 52.3833 168.1333 239° Southwest 510 587 40,000  Level Anchorage Center
Thu 12:20:21 AM 52.3167 167.9333 241° Southwest 510 587 40,000  Level Anchorage Center
Thu 12:21:21 AM 52.2333 167.7167 238° Southwest 510 587 40,000  Level Anchorage Center
Thu 12:22:21 AM 52.1667 167.5333 239° Southwest 500 575 40,000  Level Anchorage Center
Thu 12:26:25 AM 51.9333 166.8500 239° Southwest 504 580 40,000  Level Anchorage Center
Thu 12:32:38 AM 51.4333 165.5500 238° Southwest 498 573 40,000  Level Anchorage Center
Thu 12:35:26 AM 51.2167 165.0333 237° Southwest 501 577 40,000  Level Anchorage Center
Thu 12:38:56 AM 50.9500 164.3833 237° Southwest 502 578 40,000  Level Anchorage Center
Thu 12:45:01 AM 50.5000 163.2833 236° Southwest 481 554 40,000  Level Anchorage Center
Thu 12:54:38 AM 49.7667 161.6500 235° Southwest 476 548 40,000  Level Anchorage Center
Thu 12:58:35 AM 49.4833 161.0333 234° Southwest 467 537 40,000  Level Anchorage Center
Thu 12:59:00 AM 49.4036 160.8568 234° Southwest 481 554 40,000  Level FlightAware Transoceanic
Thu 01:00:00 AM 49.3094 160.6639 234° Southwest 476 548 40,000  Level FlightAware Transoceanic
Thu 01:01:00 AM 49.2324 160.5013 234° Southwest 476 548 40,000  Level FlightAware Transoceanic
Thu 01:02:00 AM 49.1552 160.3393 234° Southwest 476 548 40,000  Level FlightAware Transoceanic
Thu 01:03:00 AM 49.0777 160.1777 234° Southwest 476 548 40,000  Level FlightAware Transoceanic
Thu 01:04:00 AM 49.0000 160.0167 233° Southwest 476 548 40,000  Level FlightAware Transoceanic
Thu 01:05:00 AM 49.0000 160.0167 233° Southwest 467 537 40,000  Level FlightAware Transoceanic
Thu 01:06:00 AM 48.9216 159.8568 233° Southwest 467 537 40,000  Level FlightAware Transoceanic
Thu 01:07:00 AM 48.8430 159.6975 233° Southwest 467 537 40,000  Level FlightAware Transoceanic
Thu 01:08:00 AM 48.7643 159.5387 233° Southwest 467 537 40,000  Level FlightAware Transoceanic
Thu 01:09:00 AM 48.6852 159.3803 233° Southwest 467 537 40,000  Level FlightAware Transoceanic
Thu 01:10:00 AM 48.6060 159.2225 233° Southwest 467 537 40,000  Level FlightAware Transoceanic
Thu 01:11:00 AM 48.5265 159.0652 233° Southwest 467 537 40,000  Level FlightAware Transoceanic
Thu 01:12:00 AM 48.4469 158.9083 232° Southwest 467 537 40,000  Level FlightAware Transoceanic
Thu 01:13:00 AM 48.3670 158.7520 232° Southwest 467 537 40,000  Level FlightAware Transoceanic
Thu 01:14:00 AM 48.2869 158.5961 232° Southwest 467 537 40,000  Level FlightAware Transoceanic
Thu 01:15:00 AM 48.2066 158.4407 232° Southwest 467 537 40,000  Level FlightAware Transoceanic
Thu 01:16:00 AM 48.1261 158.2858 232° Southwest 467 537 40,000  Level FlightAware Transoceanic
Thu 01:17:00 AM 48.0454 158.1314 232° Southwest 467 537 40,000  Level FlightAware Transoceanic
Thu 01:18:00 AM 47.9645 157.9775 232° Southwest 467 537 40,000  Level FlightAware Transoceanic
Thu 01:19:00 AM 47.8833 157.8241 232° Southwest 467 537 40,000  Level FlightAware Transoceanic
Thu 01:20:00 AM 47.8020 157.6711 232° Southwest 467 537 40,000  Level FlightAware Transoceanic
Thu 01:21:00 AM 47.7205 157.5186 231° Southwest 467 537 40,000  Level FlightAware Transoceanic
Thu 01:22:00 AM 47.6387 157.3667 231° Southwest 467 537 40,000  Level FlightAware Transoceanic
Thu 01:23:00 AM 47.5568 157.2151 231° Southwest 467 537 40,000  Level FlightAware Transoceanic
Thu 01:24:00 AM 47.4747 157.0641 231° Southwest 467 537 40,000  Level FlightAware Transoceanic
Thu 01:25:00 AM 47.3923 156.9135 231° Southwest 467 537 40,000  Level FlightAware Transoceanic
Thu 01:26:00 AM 47.3098 156.7634 231° Southwest 467 537 40,000  Level FlightAware Transoceanic
Thu 01:27:00 AM 47.2271 156.6137 231° Southwest 467 537 40,000  Level FlightAware Transoceanic
Thu 01:28:00 AM 47.1442 156.4646 231° Southwest 467 537 40,000  Level FlightAware Transoceanic
Thu 01:29:00 AM 47.0611 156.3159 231° Southwest 467 537 40,000  Level FlightAware Transoceanic
Thu 01:30:00 AM 46.9777 156.1676 230° Southwest 467 537 40,000  Level FlightAware Transoceanic
Thu 01:31:00 AM 46.8942 156.0198 230° Southwest 467 537 40,000  Level FlightAware Transoceanic
Thu 01:32:00 AM 46.8106 155.8725 230° Southwest 467 537 40,000  Level FlightAware Transoceanic
Thu 01:33:00 AM 46.7267 155.7256 230° Southwest 467 537 40,000  Level FlightAware Transoceanic
Thu 01:34:00 AM 46.6426 155.5792 230° Southwest 467 537 40,000  Level FlightAware Transoceanic
Thu 01:35:00 AM 46.5584 155.4333 230° Southwest 467 537 40,000  Level FlightAware Transoceanic
Thu 01:36:00 AM 46.4740 155.2878 230° Southwest 467 537 40,000  Level FlightAware Transoceanic
Thu 01:37:00 AM 46.3894 155.1427 230° Southwest 467 537 40,000  Level FlightAware Transoceanic
Thu 01:38:00 AM 46.3046 154.9981 230° Southwest 467 537 40,000  Level FlightAware Transoceanic
Thu 01:39:00 AM 46.2196 154.8540 229° Southwest 467 537 40,000  Level FlightAware Transoceanic
Thu 01:40:00 AM 46.1344 154.7103 229° Southwest 467 537 40,000  Level FlightAware Transoceanic
Thu 01:41:00 AM 46.0491 154.5670 229° Southwest 467 537 40,000  Level FlightAware Transoceanic
Thu 01:42:00 AM 45.9636 154.4242 229° Southwest 467 537 40,000  Level FlightAware Transoceanic
Thu 01:43:00 AM 45.8779 154.2818 229° Southwest 467 537 40,000  Level FlightAware Transoceanic
Thu 01:44:00 AM 45.7920 154.1399 229° Southwest 467 537 40,000  Level FlightAware Transoceanic
Thu 01:45:00 AM 45.7060 153.9984 229° Southwest 467 537 40,000  Level FlightAware Transoceanic
Thu 01:46:00 AM 45.6197 153.8573 229° Southwest 467 537 40,000  Level FlightAware Transoceanic
Thu 01:47:00 AM 45.5246 153.7275 224° Southwest  Level FlightAware Approximate
Thu 01:48:00 AM 45.4294 153.5982 224° Southwest  Level FlightAware Approximate
Thu 01:49:00 AM 45.4361 153.5875 228° Southwest  Level FlightAware Approximate
Thu 01:50:00 AM 45.3485 153.4478 228° Southwest  Level FlightAware Approximate
Thu 01:51:00 AM 45.2607 153.3085 228° Southwest  Level FlightAware Approximate
Thu 01:52:00 AM 45.1728 153.1696 228° Southwest  Level FlightAware Approximate
Thu 01:53:00 AM 45.0847 153.0312 228° Southwest  Level FlightAware Approximate
Thu 01:54:00 AM 44.9965 152.8932 228° Southwest  Level FlightAware Approximate
Thu 01:55:00 AM 44.9080 152.7556 228° Southwest  Level FlightAware Approximate
Thu 01:56:00 AM 44.8195 152.6185 228° Southwest  Level FlightAware Approximate
Thu 01:57:00 AM 44.7307 152.4818 228° Southwest  Level FlightAware Approximate
Thu 01:58:00 AM 44.6419 152.3457 228° Southwest  Level FlightAware Approximate
Thu 01:59:00 AM 44.5530 152.2100 227° Southwest  Level FlightAware Approximate
Thu 02:00:00 AM 44.4639 152.0747 227° Southwest  Level FlightAware Approximate
Thu 02:01:00 AM 44.3746 151.9399 227° Southwest  Level FlightAware Approximate
Thu 02:02:00 AM 44.2852 151.8054 227° Southwest  Level FlightAware Approximate
Thu 02:03:00 AM 44.1956 151.6714 227° Southwest  Level FlightAware Approximate
Thu 02:04:00 AM 44.1059 151.5378 227° Southwest  Level FlightAware Approximate
Thu 02:05:00 AM 44.0160 151.4046 227° Southwest  Level FlightAware Approximate
Thu 02:06:00 AM 43.9260 151.2717 227° Southwest  Level FlightAware Approximate
Thu 02:07:00 AM 43.8358 151.1393 227° Southwest  Level FlightAware Approximate
Thu 02:08:00 AM 43.7454 151.0073 227° Southwest  Level FlightAware Approximate
Thu 02:09:00 AM 43.6549 150.8757 226° Southwest  Level FlightAware Approximate
Thu 02:10:00 AM 43.5643 150.7444 226° Southwest  Level FlightAware Approximate
Thu 02:11:00 AM 43.4735 150.6136 226° Southwest  Level FlightAware Approximate
Thu 02:12:00 AM 43.3825 150.4832 226° Southwest  Level FlightAware Approximate
Thu 02:13:00 AM 43.2915 150.3531 226° Southwest  Level FlightAware Approximate
Thu 02:14:00 AM 43.2002 150.2235 226° Southwest  Level FlightAware Approximate
Thu 02:15:00 AM 43.1088 150.0942 226° Southwest  Level FlightAware Approximate
Thu 02:16:00 AM 43.0173 149.9653 226° Southwest  Level FlightAware Approximate
Thu 02:17:00 AM 42.9256 149.8369 226° Southwest  Level FlightAware Approximate
Thu 02:18:00 AM 42.8338 149.7087 226° Southwest  Level FlightAware Approximate
Thu 02:19:00 AM 42.7418 149.5810 226° Southwest  Level FlightAware Approximate
Thu 02:20:00 AM 42.6497 149.4536 226° Southwest  Level FlightAware Approximate
Thu 02:21:00 AM 42.5575 149.3267 225° Southwest  Level FlightAware Approximate
Thu 02:22:00 AM 42.4651 149.2001 225° Southwest  Level FlightAware Approximate
Thu 02:23:00 AM 42.3726 149.0738 225° Southwest  Level FlightAware Approximate
Thu 02:24:00 AM 42.2799 148.9480 225° Southwest  Level FlightAware Approximate
Thu 02:25:00 AM 42.1871 148.8225 225° Southwest  Level FlightAware Approximate
Thu 02:26:00 AM 42.0942 148.6974 225° Southwest  Level FlightAware Approximate
Thu 02:27:00 AM 42.0011 148.5726 225° Southwest  Level FlightAware Approximate
Thu 02:28:00 AM 41.9079 148.4482 225° Southwest  Level FlightAware Approximate
Thu 02:29:00 AM 41.8146 148.3242 225° Southwest  Level FlightAware Approximate
Thu 02:30:00 AM 41.7210 148.2007 224° Southwest  Level FlightAware Approximate
Thu 02:31:00 AM 41.6265 148.0787 224° Southwest  Level FlightAware Approximate
Thu 02:32:00 AM 41.5319 147.9570 224° Southwest  Level FlightAware Approximate
Thu 02:33:00 AM 41.4370 147.8354 224° Southwest  Level FlightAware Approximate
Thu 02:34:00 AM 41.3419 147.7143 224° Southwest  Level FlightAware Approximate
Thu 02:35:00 AM 41.2467 147.5934 224° Southwest  Level FlightAware Approximate
Thu 02:36:00 AM 41.1515 147.4730 224° Southwest  Level FlightAware Approximate
Thu 02:37:00 AM 41.0560 147.3528 224° Southwest  Level FlightAware Approximate
Thu 02:38:00 AM 40.9605 147.2331 223° Southwest  Level FlightAware Approximate
Thu 02:39:00 AM 40.8648 147.1136 223° Southwest  Level FlightAware Approximate
Thu 02:40:00 AM 40.7690 146.9946 223° Southwest  Level FlightAware Approximate
Thu 02:41:00 AM 40.6731 146.8758 223° Southwest  Level FlightAware Approximate
Thu 02:42:00 AM 40.5771 146.7574 223° Southwest  Level FlightAware Approximate
Thu 02:43:00 AM 40.4809 146.6394 223° Southwest  Level FlightAware Approximate
Thu 02:44:00 AM 40.3847 146.5217 223° Southwest  Level FlightAware Approximate
Thu 02:45:00 AM 40.2883 146.4043 223° Southwest  Level FlightAware Approximate
Thu 02:46:00 AM 40.1918 146.2872 223° Southwest  Level FlightAware Approximate
Thu 02:47:00 AM 40.0951 146.1705 223° Southwest  Level FlightAware Approximate
Thu 02:48:00 AM 39.9984 146.0541 223° Southwest  Level FlightAware Approximate
Thu 02:49:00 AM 39.9015 145.9381 223° Southwest  Level FlightAware Approximate
Thu 02:50:00 AM 39.8046 145.8224 223° Southwest  Level FlightAware Approximate
Thu 02:51:00 AM 39.7075 145.7070 222° Southwest  Level FlightAware Approximate
Thu 02:52:00 AM 39.6103 145.5919 222° Southwest  Level FlightAware Approximate
Thu 02:53:00 AM 39.5130 145.4771 222° Southwest  Level FlightAware Approximate
Thu 02:54:00 AM 39.4155 145.3627 222° Southwest  Level FlightAware Approximate
Thu 02:55:00 AM 39.3180 145.2486 222° Southwest  Level FlightAware Approximate
Thu 02:56:00 AM 39.2203 145.1348 222° Southwest  Level FlightAware Approximate
Thu 02:57:00 AM 39.1226 145.0213 222° Southwest  Level FlightAware Approximate
Thu 02:58:00 AM 39.0247 144.9082 222° Southwest  Level FlightAware Approximate
Thu 02:59:00 AM 38.9267 144.7953 222° Southwest  Level FlightAware Approximate
Thu 03:00:00 AM 38.8286 144.6828 222° Southwest  Level FlightAware Approximate
Thu 03:01:00 AM 38.7303 144.5708 222° Southwest  Level FlightAware Approximate
Thu 03:02:00 AM 38.6318 144.4591 222° Southwest  Level FlightAware Approximate
Thu 03:03:00 AM 38.5331 144.3478 221° Southwest  Level FlightAware Approximate
Thu 03:04:00 AM 38.4344 144.2368 221° Southwest  Level FlightAware Approximate
Thu 03:05:00 AM 38.3356 144.1261 221° Southwest  Level FlightAware Approximate
Thu 03:06:00 AM 38.2367 144.0157 221° Southwest  Level FlightAware Approximate
Thu 03:07:00 AM 38.1376 143.9056 221° Southwest  Level FlightAware Approximate
Thu 03:08:00 AM 38.0385 143.7958 221° Southwest  Level FlightAware Approximate
Thu 03:09:00 AM 37.9393 143.6863 221° Southwest  Level FlightAware Approximate
Thu 03:10:00 AM 37.8399 143.5771 221° Southwest  Level FlightAware Approximate
Thu 03:11:00 AM 37.7336 143.4799 212° Southwest  Level FlightAware Approximate
Thu 03:12:00 AM 37.6227 143.3910 212° Southwest  Level FlightAware Approximate
Thu 03:13:00 AM 37.5117 143.3024 212° Southwest  Level FlightAware Approximate
Thu 03:14:00 AM 37.4007 143.2140 212° Southwest  Level FlightAware Approximate
Thu 03:15:00 AM 37.2896 143.1259 212° Southwest  Level FlightAware Approximate
Thu 03:16:00 AM 37.1785 143.0381 212° Southwest  Level FlightAware Approximate
Thu 03:17:00 AM 37.0673 142.9505 212° Southwest  Level FlightAware Approximate
Thu 03:18:00 AM 36.9567 142.8618 213° Southwest  Level FlightAware Approximate
Thu 03:19:00 AM 36.8461 142.7733 213° Southwest  Level FlightAware Approximate
Thu 03:20:00 AM 36.7354 142.6850 213° Southwest  Level FlightAware Approximate
Thu 03:21:00 AM 36.6237 142.5989 212° Southwest  Level FlightAware Approximate
Thu 03:22:00 AM 36.5117 142.5137 206° Southwest  Level FlightAware Approximate
Thu 03:23:00 AM 36.3983 142.4321 210° Southwest  Level FlightAware Approximate
Thu 03:24:00 AM 36.2847 142.3494 210° Southwest  Level FlightAware Approximate
Thu 03:25:00 AM 36.1711 142.2668 210° Southwest  Level FlightAware Approximate
Thu 03:26:00 AM 36.0575 142.1842 210° Southwest  Level FlightAware Approximate
Thu 03:27:00 AM 36.0143 142.0408 252° West  Level FlightAware Approximate
Thu 03:28:00 AM 35.9736 141.8859 252° West  Level FlightAware Approximate
Thu 03:29:00 AM 35.9328 141.7312 253° West  Level FlightAware Approximate
Thu 03:30:00 AM 35.8983 141.5748 265° West  Level FlightAware Approximate
Thu 03:31:00 AM 35.8876 141.4127 265° West  Level FlightAware Approximate
Thu 03:32:00 AM 35.8671 141.2524 258° West  Level FlightAware Approximate
Thu 03:33:00 AM 35.8429 141.0927 261° West  Level FlightAware Approximate
Thu 03:34:00 AM 35.8228 140.9319 261° West  Level FlightAware Approximate
Thu 03:35:00 AM 35.8097 140.7703 262° West  Level FlightAware Approximate
Thu 03:36:00 AM 35.7878 140.6103 258° West  Level FlightAware Approximate
Thu 03:37:00 AM 35.7667 140.4506 270° West  Level FlightAware Approximate
Thu 03:38:00 AM 35.7500 140.3833 253° West  Level FlightAware Approximate
Thu 03:39:00 AM 35.7647 140.3864 253° West  Level Estimated
Thu 03:40:00 AM 35.7647 140.3864 253° West  Level Estimated
Thu 03:41:00 AM 35.7647 140.3864 253° West  Level Estimated
Thu 03:42:00 AM 35.7647 140.3864 253° West  Level Estimated
Thu 03:43:00 AM 35.7647 140.3864 253° West  Level Estimated
Thu 03:44:00 AM 35.7647 140.3864 253° West  Level Estimated
Thu 03:45:00 AM 35.7647 140.3864 253° West  Level Estimated
Thu 03:46:00 AM 35.7647 140.3864 253° West  Level Estimated
Thu 03:47:00 AM 35.7647 140.3864 253° West  Level Estimated
Thu 03:48:00 AM 35.7647 140.3864 253° West  Level Estimated
Thu 03:49:00 AM 35.7647 140.3864 253° West  Level Estimated
Thu 03:50:00 AM 35.7647 140.3864 253° West  Level Estimated
Thu 03:51:00 AM 35.7647 140.3864 253° West  Level Estimated
Thu 03:52:00 AM 35.7647 140.3864 253° West  Level Estimated
Thu 03:53:00 AM 35.7647 140.3864 253° West  Level Estimated
Thu 03:54:00 AM 35.7647 140.3864 253° West  Level Estimated
Thu 03:55:00 AM 35.7647 140.3864 253° West  Level Estimated
Thu 03:56:00 AM 35.7647 140.3864 253° West  Level Estimated
Thu 03:57:00 AM 35.7647 140.3864 253° West  Level Estimated
Thu 03:58:00 AM 35.7647 140.3864 253° West  Level Estimated
Thu 03:59:00 AM 35.7647 140.3864 253° West  Level Estimated
Thu 04:00:00 AM 35.7647 140.3864 253° West  Level Estimated
Thu 04:01:00 AM 35.7647 140.3864 253° West  Level Estimated
Thu 04:02:00 AM 35.7647 140.3864 253° West  Level Estimated
Thu 04:03:00 AM 35.7647 140.3864 253° West  Level Estimated
Thu 04:04:00 AM 35.7647 140.3864 253° West  Level Estimated
Thu 04:05:00 AM 35.7647 140.3864 253° West  Level Estimated
Thu 04:06:00 AM 35.7647 140.3864 253° West  Level Estimated
Thu 04:07:00 AM 35.7647 140.3864 253° West  Level Estimated
Thu 04:08:00 AM 35.7647 140.3864 253° West  Level Estimated
Thu 04:09:00 AM 35.7647 140.3864 253° West  Level Estimated
Thu 04:10:00 AM 35.7647 140.3864 253° West  Level Estimated
Thu 04:11:00 AM 35.7647 140.3864 253° West  Level Estimated
Thu 04:12:00 AM 35.7647 140.3864 253° West  Level Estimated
Thu 04:13:00 AM 35.7647 140.3864 253° West  Level Estimated
Thu 04:14:00 AM 35.7647 140.3864 253° West  Level Estimated
Thu 04:15:00 AM 35.7647 140.3864 253° West  Level Estimated
Thu 04:16:00 AM 35.7647 140.3864 253° West  Level Estimated
Thu 04:17:00 AM 35.7647 140.3864 253° West  Level Estimated
Thu 04:18:00 AM 35.7647 140.3864 253° West  Level Estimated
Thu 04:19:00 AM 35.7647 140.3864 253° West  Level Estimated
Thu 04:20:00 AM 35.7647 140.3864 253° West  Level Estimated
Thu 04:21:00 AM 35.7647 140.3864 253° West  Level Estimated
Thu 04:22:00 AM 35.7647 140.3864 253° West  Level Estimated
Thu 04:23:00 AM 35.7647 140.3864 253° West  Level Estimated
Thu 04:24:00 AM 35.7647 140.3864 253° West  Level Estimated
Thu 04:25:00 AM 35.7647 140.3864 253° West  Level Estimated
Thu 04:26:00 AM 35.7647 140.3864 253° West  Level Estimated
Thu 04:27:00 AM 35.7647 140.3864 253° West  Level Estimated
Thu 04:28:00 AM 35.7647 140.3864 253° West  Level Estimated
Thu 04:29:00 AM 35.7647 140.3864 253° West  Level Estimated
Thu 04:30:00 AM 35.7647 140.3864 253° West  Level Estimated
Thu 04:31:00 AM 35.7647 140.3864 253° West  Level Estimated
Thu 04:32:00 AM 35.7647 140.3864 253° West  Level Estimated
Thu 04:33:00 AM 35.7647 140.3864 253° West  Level Estimated
Thu 04:34:00 AM 35.7647 140.3864 253° West  Level Estimated
Thu 04:35:00 AM 35.7647 140.3864 253° West  Level Estimated
Thu 04:36:00 AM 35.7647 140.3864 253° West  Level Estimated
Thu 04:37:00 AM 35.7647 140.3864 253° West  Level Estimated
Thu 04:38:00 AM 35.7647 140.3864 253° West  Level Estimated
Thu 04:39:00 AM 35.7647 140.3864 253° West  Level Estimated
Thu 04:40:00 AM 35.7647 140.3864 253° West  Level Estimated
Thu 04:41:00 AM 35.7647 140.3864 253° West  Level Estimated
Thu 04:42:00 AM 35.7647 140.3864 253° West  Level Estimated
Thu 04:43:00 AM 35.7647 140.3864 253° West  Level Estimated
Thu 04:44:00 AM 35.7647 140.3864 253° West  Level Estimated
Thu 04:45:00 AM 35.7647 140.3864 253° West  Level Estimated
Thu 04:46:00 AM 35.7647 140.3864 253° West  Level Estimated
Thu 04:47:00 AM 35.7647 140.3864 253° West  Level Estimated
Thu 04:48:00 AM 35.7647 140.3864 253° West  Level Estimated
Thu 04:49:00 AM 35.7647 140.3864 253° West  Level Estimated
Thu 04:50:00 AM 35.7647 140.3864 253° West  Level Estimated
Thu 04:51:00 AM 35.7647 140.3864 253° West  Level Estimated
Thu 04:52:00 AM 35.7647 140.3864 253° West  Level Estimated
Thu 04:53:00 AM 35.7647 140.3864 253° West  Level Estimated
Thu 04:54:00 AM 35.7647 140.3864 253° West  Level Estimated
Thu 04:55:00 AM 35.7647 140.3864 253° West  Level Estimated
Thu 04:56:00 AM 35.7647 140.3864 253° West  Level Estimated
Thu 04:57:00 AM 35.7647 140.3864 253° West  Level Estimated
Thu 04:58:00 AM 35.7647 140.3864 253° West  Level Estimated
Thu 04:59:00 AM 35.7647 140.3864 253° West  Level Estimated
Thu 05:00:00 AM 35.7647 140.3864 253° West  Level Estimated
Thu 05:01:00 AM 35.7647 140.3864 253° West  Level Estimated
Thu 05:02:00 AM 35.7647 140.3864 253° West  Level Estimated
Thu 05:03:00 AM 35.7647 140.3864 253° West  Level Estimated
Thu 05:04:00 AM 35.7647 140.3864 253° West  Level Estimated
Thu 05:05:00 AM 35.7647 140.3864 253° West  Level Estimated
Thu 05:06:00 AM 35.7647 140.3864 253° West  Level Estimated

Login

Don't have an account? Register now (free) for customized features, flight alerts, and more!